sensor_id;sensor_type;location;lat;lon;timestamp;temperature;humidity
19344;DHT22;9808;52.402;16.678;2022-10-22T00:00:10;12.00;99.90
19344;DHT22;9808;52.402;16.678;2022-10-22T00:02:37;11.80;99.90
19344;DHT22;9808;52.402;16.678;2022-10-22T00:05:05;11.80;99.90
19344;DHT22;9808;52.402;16.678;2022-10-22T00:07:32;11.80;99.90
19344;DHT22;9808;52.402;16.678;2022-10-22T00:09:59;11.80;99.90
19344;DHT22;9808;52.402;16.678;2022-10-22T00:12:26;11.80;99.90
19344;DHT22;9808;52.402;16.678;2022-10-22T00:14:52;11.80;99.90
19344;DHT22;9808;52.402;16.678;2022-10-22T00:17:19;11.70;99.90
19344;DHT22;9808;52.402;16.678;2022-10-22T00:19:46;11.70;99.90
19344;DHT22;9808;52.402;16.678;2022-10-22T00:22:12;11.80;99.90
19344;DHT22;9808;52.402;16.678;2022-10-22T00:24:39;11.70;99.90
19344;DHT22;9808;52.402;16.678;2022-10-22T00:27:08;11.80;99.90
19344;DHT22;9808;52.402;16.678;2022-10-22T00:29:35;11.80;99.90
19344;DHT22;9808;52.402;16.678;2022-10-22T00:32:03;11.80;99.90
19344;DHT22;9808;52.402;16.678;2022-10-22T00:34:30;11.80;99.90
19344;DHT22;9808;52.402;16.678;2022-10-22T00:36:57;11.80;99.90
19344;DHT22;9808;52.402;16.678;2022-10-22T00:39:26;11.80;99.90
19344;DHT22;9808;52.402;16.678;2022-10-22T00:41:55;11.80;99.90
19344;DHT22;9808;52.402;16.678;2022-10-22T00:45:04;11.70;99.90
19344;DHT22;9808;52.402;16.678;2022-10-22T00:50:01;11.80;99.90
19344;DHT22;9808;52.402;16.678;2022-10-22T00:52:34;11.80;99.90
19344;DHT22;9808;52.402;16.678;2022-10-22T00:55:02;12.00;99.90
19344;DHT22;9808;52.402;16.678;2022-10-22T00:57:29;11.80;99.90
19344;DHT22;9808;52.402;16.678;2022-10-22T00:59:57;14.10;99.90
19344;DHT22;9808;52.402;16.678;2022-10-22T01:02:24;11.80;99.90
19344;DHT22;9808;52.402;16.678;2022-10-22T01:04:51;11.80;99.90
19344;DHT22;9808;52.402;16.678;2022-10-22T01:07:20;11.80;99.90
19344;DHT22;9808;52.402;16.678;2022-10-22T01:10:02;11.80;99.90
19344;DHT22;9808;52.402;16.678;2022-10-22T01:12:41;11.80;99.90
19344;DHT22;9808;52.402;16.678;2022-10-22T01:15:23;11.80;99.90
19344;DHT22;9808;52.402;16.678;2022-10-22T01:17:58;11.70;99.90
19344;DHT22;9808;52.402;16.678;2022-10-22T01:20:46;11.80;99.90
19344;DHT22;9808;52.402;16.678;2022-10-22T01:23:47;11.80;99.90
19344;DHT22;9808;52.402;16.678;2022-10-22T01:26:27;11.80;99.90
19344;DHT22;9808;52.402;16.678;2022-10-22T01:31:55;11.70;99.90
19344;DHT22;9808;52.402;16.678;2022-10-22T01:34:25;11.80;99.90
19344;DHT22;9808;52.402;16.678;2022-10-22T01:36:54;11.80;99.90
19344;DHT22;9808;52.402;16.678;2022-10-22T01:39:22;11.70;99.90
19344;DHT22;9808;52.402;16.678;2022-10-22T01:41:49;11.70;99.90
19344;DHT22;9808;52.402;16.678;2022-10-22T01:44:36;11.60;99.90
19344;DHT22;9808;52.402;16.678;2022-10-22T01:52:44;11.70;99.90
19344;DHT22;9808;52.402;16.678;2022-10-22T02:00:30;11.70;99.90
19344;DHT22;9808;52.402;16.678;2022-10-22T02:03:01;11.70;99.90
19344;DHT22;9808;52.402;16.678;2022-10-22T02:06:00;12.90;99.90
19344;DHT22;9808;52.402;16.678;2022-10-22T02:08:31;11.70;99.90
19344;DHT22;9808;52.402;16.678;2022-10-22T02:10:59;11.60;99.90
19344;DHT22;9808;52.402;16.678;2022-10-22T02:13:29;11.90;99.90
19344;DHT22;9808;52.402;16.678;2022-10-22T02:15:58;12.00;99.90
19344;DHT22;9808;52.402;16.678;2022-10-22T02:18:29;11.70;99.90
19344;DHT22;9808;52.402;16.678;2022-10-22T02:21:03;11.70;99.90
19344;DHT22;9808;52.402;16.678;2022-10-22T02:23:31;11.90;99.90
19344;DHT22;9808;52.402;16.678;2022-10-22T02:26:02;11.80;99.90
19344;DHT22;9808;52.402;16.678;2022-10-22T02:28:51;11.70;99.90
19344;DHT22;9808;52.402;16.678;2022-10-22T02:31:22;11.70;99.90
19344;DHT22;9808;52.402;16.678;2022-10-22T02:33:53;11.70;99.90
19344;DHT22;9808;52.402;16.678;2022-10-22T02:36:21;11.80;99.90
19344;DHT22;9808;52.402;16.678;2022-10-22T02:38:50;11.70;99.90
19344;DHT22;9808;52.402;16.678;2022-10-22T02:41:17;14.30;99.90
19344;DHT22;9808;52.402;16.678;2022-10-22T02:43:50;12.90;99.90
19344;DHT22;9808;52.402;16.678;2022-10-22T02:46:19;11.70;99.90
19344;DHT22;9808;52.402;16.678;2022-10-22T02:48:46;11.70;99.90
19344;DHT22;9808;52.402;16.678;2022-10-22T02:51:13;12.30;99.90
19344;DHT22;9808;52.402;16.678;2022-10-22T02:53:40;12.80;99.90
19344;DHT22;9808;52.402;16.678;2022-10-22T02:56:07;11.80;99.90
19344;DHT22;9808;52.402;16.678;2022-10-22T02:58:34;11.80;99.90
19344;DHT22;9808;52.402;16.678;2022-10-22T03:01:00;11.70;99.90
19344;DHT22;9808;52.402;16.678;2022-10-22T03:03:27;11.80;99.90
19344;DHT22;9808;52.402;16.678;2022-10-22T03:05:54;11.90;99.90
19344;DHT22;9808;52.402;16.678;2022-10-22T03:08:21;11.80;99.90
19344;DHT22;9808;52.402;16.678;2022-10-22T03:10:48;11.80;99.90
19344;DHT22;9808;52.402;16.678;2022-10-22T03:13:14;12.80;99.90
19344;DHT22;9808;52.402;16.678;2022-10-22T03:15:41;11.80;99.90
19344;DHT22;9808;52.402;16.678;2022-10-22T03:18:08;11.80;99.90
19344;DHT22;9808;52.402;16.678;2022-10-22T03:20:35;11.80;99.90
19344;DHT22;9808;52.402;16.678;2022-10-22T03:23:02;11.80;99.90
19344;DHT22;9808;52.402;16.678;2022-10-22T03:25:29;11.80;99.90
19344;DHT22;9808;52.402;16.678;2022-10-22T03:28:02;11.80;99.90
19344;DHT22;9808;52.402;16.678;2022-10-22T03:30:30;11.80;99.90
19344;DHT22;9808;52.402;16.678;2022-10-22T03:32:57;11.80;99.90
19344;DHT22;9808;52.402;16.678;2022-10-22T03:35:24;11.80;99.90
19344;DHT22;9808;52.402;16.678;2022-10-22T03:37:51;11.80;99.90
19344;DHT22;9808;52.402;16.678;2022-10-22T03:40:19;11.90;99.90
19344;DHT22;9808;52.402;16.678;2022-10-22T03:42:46;11.80;99.90
19344;DHT22;9808;52.402;16.678;2022-10-22T03:45:13;11.90;99.90
19344;DHT22;9808;52.402;16.678;2022-10-22T03:47:40;11.90;99.90
19344;DHT22;9808;52.402;16.678;2022-10-22T03:50:07;11.80;99.90
19344;DHT22;9808;52.402;16.678;2022-10-22T03:52:36;11.90;99.90
19344;DHT22;9808;52.402;16.678;2022-10-22T03:55:03;11.90;99.90
19344;DHT22;9808;52.402;16.678;2022-10-22T03:57:31;11.90;99.90
19344;DHT22;9808;52.402;16.678;2022-10-22T03:59:58;11.80;99.90
19344;DHT22;9808;52.402;16.678;2022-10-22T04:02:25;11.90;99.90
19344;DHT22;9808;52.402;16.678;2022-10-22T04:04:51;11.80;99.90
19344;DHT22;9808;52.402;16.678;2022-10-22T04:07:18;11.80;99.90
19344;DHT22;9808;52.402;16.678;2022-10-22T04:09:45;11.90;99.90
19344;DHT22;9808;52.402;16.678;2022-10-22T04:12:11;11.90;99.90
19344;DHT22;9808;52.402;16.678;2022-10-22T04:14:38;12.40;99.90
19344;DHT22;9808;52.402;16.678;2022-10-22T04:17:05;11.90;99.90
19344;DHT22;9808;52.402;16.678;2022-10-22T04:19:32;11.90;99.90
19344;DHT22;9808;52.402;16.678;2022-10-22T04:21:59;12.10;99.90
19344;DHT22;9808;52.402;16.678;2022-10-22T04:24:26;11.90;99.90
19344;DHT22;9808;52.402;16.678;2022-10-22T04:26:54;12.30;99.90
19344;DHT22;9808;52.402;16.678;2022-10-22T04:29:20;11.90;99.90
19344;DHT22;9808;52.402;16.678;2022-10-22T04:31:47;12.00;99.90
19344;DHT22;9808;52.402;16.678;2022-10-22T04:34:14;11.90;99.90
19344;DHT22;9808;52.402;16.678;2022-10-22T04:36:41;11.90;99.90
19344;DHT22;9808;52.402;16.678;2022-10-22T04:39:08;11.90;99.90
19344;DHT22;9808;52.402;16.678;2022-10-22T04:41:36;12.00;99.90
19344;DHT22;9808;52.402;16.678;2022-10-22T04:44:05;11.90;99.90
19344;DHT22;9808;52.402;16.678;2022-10-22T04:46:33;11.90;99.90
19344;DHT22;9808;52.402;16.678;2022-10-22T04:49:00;12.00;99.90
19344;DHT22;9808;52.402;16.678;2022-10-22T04:51:29;11.90;99.90
19344;DHT22;9808;52.402;16.678;2022-10-22T04:53:57;11.90;99.90
19344;DHT22;9808;52.402;16.678;2022-10-22T04:56:27;12.20;99.90
19344;DHT22;9808;52.402;16.678;2022-10-22T04:58:57;12.00;99.90
19344;DHT22;9808;52.402;16.678;2022-10-22T05:01:29;12.00;99.90
19344;DHT22;9808;52.402;16.678;2022-10-22T05:03:58;12.00;99.90
19344;DHT22;9808;52.402;16.678;2022-10-22T05:06:26;12.00;99.90
19344;DHT22;9808;52.402;16.678;2022-10-22T05:08:55;13.50;99.90
19344;DHT22;9808;52.402;16.678;2022-10-22T05:11:25;12.10;99.90
19344;DHT22;9808;52.402;16.678;2022-10-22T05:13:58;12.00;99.90
19344;DHT22;9808;52.402;16.678;2022-10-22T05:16:27;12.00;99.90
19344;DHT22;9808;52.402;16.678;2022-10-22T05:18:56;12.10;99.90
19344;DHT22;9808;52.402;16.678;2022-10-22T05:21:23;12.10;99.90
19344;DHT22;9808;52.402;16.678;2022-10-22T05:23:50;12.00;99.90
19344;DHT22;9808;52.402;16.678;2022-10-22T05:26:18;12.00;99.90
19344;DHT22;9808;52.402;16.678;2022-10-22T05:28:47;12.20;99.90
19344;DHT22;9808;52.402;16.678;2022-10-22T05:31:15;12.40;99.90
19344;DHT22;9808;52.402;16.678;2022-10-22T05:33:43;12.10;99.90
19344;DHT22;9808;52.402;16.678;2022-10-22T05:36:15;12.10;99.90
19344;DHT22;9808;52.402;16.678;2022-10-22T05:38:42;12.10;99.90
19344;DHT22;9808;52.402;16.678;2022-10-22T05:41:14;12.30;99.90
19344;DHT22;9808;52.402;16.678;2022-10-22T05:43:41;12.10;99.90
19344;DHT22;9808;52.402;16.678;2022-10-22T05:46:15;12.20;99.90
19344;DHT22;9808;52.402;16.678;2022-10-22T05:48:55;12.10;99.90
19344;DHT22;9808;52.402;16.678;2022-10-22T05:51:23;12.20;99.90
19344;DHT22;9808;52.402;16.678;2022-10-22T05:53:52;12.20;99.90
19344;DHT22;9808;52.402;16.678;2022-10-22T05:56:20;12.20;99.90
19344;DHT22;9808;52.402;16.678;2022-10-22T05:58:47;12.00;99.90
19344;DHT22;9808;52.402;16.678;2022-10-22T06:01:20;12.20;99.90
19344;DHT22;9808;52.402;16.678;2022-10-22T06:03:47;12.20;99.90
19344;DHT22;9808;52.402;16.678;2022-10-22T06:08:50;12.20;99.90
19344;DHT22;9808;52.402;16.678;2022-10-22T06:11:19;12.20;99.90
19344;DHT22;9808;52.402;16.678;2022-10-22T06:13:47;12.20;99.90
19344;DHT22;9808;52.402;16.678;2022-10-22T06:16:15;12.30;99.90
19344;DHT22;9808;52.402;16.678;2022-10-22T06:18:41;12.50;99.90
19344;DHT22;9808;52.402;16.678;2022-10-22T06:21:11;12.30;99.90
19344;DHT22;9808;52.402;16.678;2022-10-22T06:23:38;12.30;99.90
19344;DHT22;9808;52.402;16.678;2022-10-22T06:26:06;12.90;99.90
19344;DHT22;9808;52.402;16.678;2022-10-22T06:28:33;12.40;99.90
19344;DHT22;9808;52.402;16.678;2022-10-22T06:31:01;12.50;99.90
19344;DHT22;9808;52.402;16.678;2022-10-22T06:33:30;12.40;99.90
19344;DHT22;9808;52.402;16.678;2022-10-22T06:36:11;12.40;99.90
19344;DHT22;9808;52.402;16.678;2022-10-22T06:38:39;12.40;99.90
19344;DHT22;9808;52.402;16.678;2022-10-22T06:41:12;12.40;99.90
19344;DHT22;9808;52.402;16.678;2022-10-22T06:43:40;13.30;99.90
19344;DHT22;9808;52.402;16.678;2022-10-22T06:46:08;12.50;99.90
19344;DHT22;9808;52.402;16.678;2022-10-22T06:48:41;12.50;99.90
19344;DHT22;9808;52.402;16.678;2022-10-22T06:51:10;12.50;99.90
19344;DHT22;9808;52.402;16.678;2022-10-22T06:53:38;12.50;99.90
19344;DHT22;9808;52.402;16.678;2022-10-22T06:56:07;12.50;99.90
19344;DHT22;9808;52.402;16.678;2022-10-22T06:58:35;12.60;99.90
19344;DHT22;9808;52.402;16.678;2022-10-22T07:01:10;12.60;99.90
19344;DHT22;9808;52.402;16.678;2022-10-22T07:03:39;14.80;99.90
19344;DHT22;9808;52.402;16.678;2022-10-22T07:06:08;12.60;99.90
19344;DHT22;9808;52.402;16.678;2022-10-22T07:08:36;13.20;99.90
19344;DHT22;9808;52.402;16.678;2022-10-22T07:11:08;12.70;99.90
19344;DHT22;9808;52.402;16.678;2022-10-22T07:13:36;12.80;99.90
19344;DHT22;9808;52.402;16.678;2022-10-22T07:16:04;12.80;99.90
19344;DHT22;9808;52.402;16.678;2022-10-22T07:18:32;12.80;99.90
19344;DHT22;9808;52.402;16.678;2022-10-22T07:20:59;12.80;99.90
19344;DHT22;9808;52.402;16.678;2022-10-22T07:23:27;12.80;99.90
19344;DHT22;9808;52.402;16.678;2022-10-22T07:25:54;14.50;99.90
19344;DHT22;9808;52.402;16.678;2022-10-22T07:28:22;12.90;99.90
19344;DHT22;9808;52.402;16.678;2022-10-22T07:30:49;12.90;99.90
19344;DHT22;9808;52.402;16.678;2022-10-22T07:33:16;13.20;99.90
19344;DHT22;9808;52.402;16.678;2022-10-22T07:35:43;13.00;99.90
19344;DHT22;9808;52.402;16.678;2022-10-22T07:38:10;13.10;99.90
19344;DHT22;9808;52.402;16.678;2022-10-22T07:40:36;13.00;99.90
19344;DHT22;9808;52.402;16.678;2022-10-22T07:43:05;13.00;99.90
19344;DHT22;9808;52.402;16.678;2022-10-22T07:45:32;13.00;99.90
19344;DHT22;9808;52.402;16.678;2022-10-22T07:47:59;13.10;99.90
19344;DHT22;9808;52.402;16.678;2022-10-22T07:50:27;13.10;99.90
19344;DHT22;9808;52.402;16.678;2022-10-22T07:52:54;13.10;99.90
19344;DHT22;9808;52.402;16.678;2022-10-22T07:55:24;13.10;99.90
19344;DHT22;9808;52.402;16.678;2022-10-22T07:57:51;13.10;99.90
19344;DHT22;9808;52.402;16.678;2022-10-22T08:00:18;13.10;99.90
19344;DHT22;9808;52.402;16.678;2022-10-22T08:02:50;13.10;99.90
19344;DHT22;9808;52.402;16.678;2022-10-22T08:05:17;13.10;99.90
19344;DHT22;9808;52.402;16.678;2022-10-22T08:07:44;13.10;99.90
19344;DHT22;9808;52.402;16.678;2022-10-22T08:10:12;13.80;99.90
19344;DHT22;9808;52.402;16.678;2022-10-22T08:12:40;11.40;99.90
19344;DHT22;9808;52.402;16.678;2022-10-22T08:15:08;13.20;99.90
19344;DHT22;9808;52.402;16.678;2022-10-22T08:17:35;13.20;99.90
19344;DHT22;9808;52.402;16.678;2022-10-22T08:20:02;13.20;99.90
19344;DHT22;9808;52.402;16.678;2022-10-22T08:22:29;13.20;99.90
19344;DHT22;9808;52.402;16.678;2022-10-22T08:24:56;13.30;99.90
19344;DHT22;9808;52.402;16.678;2022-10-22T08:27:23;13.30;99.90
19344;DHT22;9808;52.402;16.678;2022-10-22T08:29:50;13.30;99.90
19344;DHT22;9808;52.402;16.678;2022-10-22T08:32:17;13.30;99.90
19344;DHT22;9808;52.402;16.678;2022-10-22T08:34:44;13.30;99.90
19344;DHT22;9808;52.402;16.678;2022-10-22T08:37:11;11.80;99.90
19344;DHT22;9808;52.402;16.678;2022-10-22T08:39:40;13.90;99.90
19344;DHT22;9808;52.402;16.678;2022-10-22T08:45:15;13.40;99.90
19344;DHT22;9808;52.402;16.678;2022-10-22T08:50:53;13.50;99.90
19344;DHT22;9808;52.402;16.678;2022-10-22T08:53:27;13.50;99.90
19344;DHT22;9808;52.402;16.678;2022-10-22T08:55:56;15.00;99.90
19344;DHT22;9808;52.402;16.678;2022-10-22T09:01:31;13.40;99.90
19344;DHT22;9808;52.402;16.678;2022-10-22T09:04:10;13.70;99.90
19344;DHT22;9808;52.402;16.678;2022-10-22T09:06:40;13.70;99.90
19344;DHT22;9808;52.402;16.678;2022-10-22T09:09:16;13.70;99.90
19344;DHT22;9808;52.402;16.678;2022-10-22T09:11:47;13.80;99.90
19344;DHT22;9808;52.402;16.678;2022-10-22T09:14:19;13.80;99.90
19344;DHT22;9808;52.402;16.678;2022-10-22T09:24:47;13.90;99.90
19344;DHT22;9808;52.402;16.678;2022-10-22T09:27:20;14.00;99.90
19344;DHT22;9808;52.402;16.678;2022-10-22T09:29:49;14.00;99.90
19344;DHT22;9808;52.402;16.678;2022-10-22T09:32:16;14.00;99.90
19344;DHT22;9808;52.402;16.678;2022-10-22T09:34:44;14.00;99.90
19344;DHT22;9808;52.402;16.678;2022-10-22T09:37:11;14.00;99.90
19344;DHT22;9808;52.402;16.678;2022-10-22T09:39:51;14.00;99.90
19344;DHT22;9808;52.402;16.678;2022-10-22T09:42:19;14.00;99.90
19344;DHT22;9808;52.402;16.678;2022-10-22T09:44:56;14.00;99.90
19344;DHT22;9808;52.402;16.678;2022-10-22T09:47:33;14.00;99.90
19344;DHT22;9808;52.402;16.678;2022-10-22T09:55:45;14.00;99.90
19344;DHT22;9808;52.402;16.678;2022-10-22T09:58:17;13.90;99.90
19344;DHT22;9808;52.402;16.678;2022-10-22T10:00:50;13.90;99.90
19344;DHT22;9808;52.402;16.678;2022-10-22T10:03:22;13.90;99.90
19344;DHT22;9808;52.402;16.678;2022-10-22T10:06:08;15.60;99.90
19344;DHT22;9808;52.402;16.678;2022-10-22T10:08:35;13.80;99.90
19344;DHT22;9808;52.402;16.678;2022-10-22T10:11:07;13.80;99.90
19344;DHT22;9808;52.402;16.678;2022-10-22T10:13:46;13.80;99.90
19344;DHT22;9808;52.402;16.678;2022-10-22T10:16:40;15.60;99.90
19344;DHT22;9808;52.402;16.678;2022-10-22T10:19:26;13.80;99.90
19344;DHT22;9808;52.402;16.678;2022-10-22T10:22:13;13.80;99.90
19344;DHT22;9808;52.402;16.678;2022-10-22T10:25:09;13.80;99.90
19344;DHT22;9808;52.402;16.678;2022-10-22T10:27:41;13.80;99.90
19344;DHT22;9808;52.402;16.678;2022-10-22T10:30:19;13.80;99.90
19344;DHT22;9808;52.402;16.678;2022-10-22T10:33:19;13.80;99.90
19344;DHT22;9808;52.402;16.678;2022-10-22T10:41:32;13.80;99.90
19344;DHT22;9808;52.402;16.678;2022-10-22T10:44:29;13.80;99.90
19344;DHT22;9808;52.402;16.678;2022-10-22T11:00:39;13.80;99.90
19344;DHT22;9808;52.402;16.678;2022-10-22T11:06:08;13.90;99.90
19344;DHT22;9808;52.402;16.678;2022-10-22T11:08:39;13.90;99.90
19344;DHT22;9808;52.402;16.678;2022-10-22T11:11:14;14.00;99.90
19344;DHT22;9808;52.402;16.678;2022-10-22T11:14:16;14.00;99.90
19344;DHT22;9808;52.402;16.678;2022-10-22T11:16:51;14.10;99.90
19344;DHT22;9808;52.402;16.678;2022-10-22T11:19:47;15.80;99.90
19344;DHT22;9808;52.402;16.678;2022-10-22T11:22:30;14.20;99.90
19344;DHT22;9808;52.402;16.678;2022-10-22T11:28:10;16.10;99.90
19344;DHT22;9808;52.402;16.678;2022-10-22T11:30:44;14.20;99.90
19344;DHT22;9808;52.402;16.678;2022-10-22T11:33:20;13.80;99.90
19344;DHT22;9808;52.402;16.678;2022-10-22T11:35:49;14.30;99.90
19344;DHT22;9808;52.402;16.678;2022-10-22T11:38:21;16.20;99.90
19344;DHT22;9808;52.402;16.678;2022-10-22T11:40:55;14.30;99.90
19344;DHT22;9808;52.402;16.678;2022-10-22T11:46:42;14.20;99.90
19344;DHT22;9808;52.402;16.678;2022-10-22T11:51:43;14.20;99.90
19344;DHT22;9808;52.402;16.678;2022-10-22T12:04:50;14.20;99.90
19344;DHT22;9808;52.402;16.678;2022-10-22T12:07:46;14.10;99.90
19344;DHT22;9808;52.402;16.678;2022-10-22T12:11:44;14.10;99.90
19344;DHT22;9808;52.402;16.678;2022-10-22T12:14:02;14.10;99.90
19344;DHT22;9808;52.402;16.678;2022-10-22T12:16:43;14.10;99.90
19344;DHT22;9808;52.402;16.678;2022-10-22T12:21:53;14.10;99.90
19344;DHT22;9808;52.402;16.678;2022-10-22T12:24:24;14.10;99.90
19344;DHT22;9808;52.402;16.678;2022-10-22T12:26:54;14.10;99.90
19344;DHT22;9808;52.402;16.678;2022-10-22T12:29:21;14.60;99.90
19344;DHT22;9808;52.402;16.678;2022-10-22T12:31:49;14.20;99.90
19344;DHT22;9808;52.402;16.678;2022-10-22T12:34:20;14.10;99.90
19344;DHT22;9808;52.402;16.678;2022-10-22T12:36:49;14.20;99.90
19344;DHT22;9808;52.402;16.678;2022-10-22T12:39:19;14.10;99.90
19344;DHT22;9808;52.402;16.678;2022-10-22T12:41:47;16.00;99.90
19344;DHT22;9808;52.402;16.678;2022-10-22T12:44:16;12.40;99.90
19344;DHT22;9808;52.402;16.678;2022-10-22T12:46:44;16.10;99.90
19344;DHT22;9808;52.402;16.678;2022-10-22T12:49:20;14.10;99.90
19344;DHT22;9808;52.402;16.678;2022-10-22T12:51:53;15.40;99.90
19344;DHT22;9808;52.402;16.678;2022-10-22T12:54:24;14.10;99.90
19344;DHT22;9808;52.402;16.678;2022-10-22T12:56:53;14.10;99.90
19344;DHT22;9808;52.402;16.678;2022-10-22T12:59:39;15.10;99.90
19344;DHT22;9808;52.402;16.678;2022-10-22T13:05:14;15.20;99.90
19344;DHT22;9808;52.402;16.678;2022-10-22T13:08:06;14.20;99.90
19344;DHT22;9808;52.402;16.678;2022-10-22T13:10:37;14.10;99.90
19344;DHT22;9808;52.402;16.678;2022-10-22T13:13:04;14.10;99.90
19344;DHT22;9808;52.402;16.678;2022-10-22T13:15:37;15.90;99.90
19344;DHT22;9808;52.402;16.678;2022-10-22T13:21:20;14.10;99.90
19344;DHT22;9808;52.402;16.678;2022-10-22T13:24:21;14.10;99.90
19344;DHT22;9808;52.402;16.678;2022-10-22T13:26:52;14.10;99.90
19344;DHT22;9808;52.402;16.678;2022-10-22T13:29:21;14.10;99.90
19344;DHT22;9808;52.402;16.678;2022-10-22T13:31:50;14.20;99.90
19344;DHT22;9808;52.402;16.678;2022-10-22T13:34:23;15.60;99.90
19344;DHT22;9808;52.402;16.678;2022-10-22T13:37:04;15.60;99.90
19344;DHT22;9808;52.402;16.678;2022-10-22T13:39:31;14.10;99.90
19344;DHT22;9808;52.402;16.678;2022-10-22T13:41:58;15.80;99.90
19344;DHT22;9808;52.402;16.678;2022-10-22T13:44:25;14.20;99.90
19344;DHT22;9808;52.402;16.678;2022-10-22T13:46:52;14.20;99.90
19344;DHT22;9808;52.402;16.678;2022-10-22T13:49:20;14.20;99.90
19344;DHT22;9808;52.402;16.678;2022-10-22T13:51:49;15.70;99.90
19344;DHT22;9808;52.402;16.678;2022-10-22T13:54:26;14.20;99.90
19344;DHT22;9808;52.402;16.678;2022-10-22T13:56:58;14.20;99.90
19344;DHT22;9808;52.402;16.678;2022-10-22T13:59:27;14.30;99.90
19344;DHT22;9808;52.402;16.678;2022-10-22T14:01:54;14.30;99.90
19344;DHT22;9808;52.402;16.678;2022-10-22T14:04:22;14.20;99.90
19344;DHT22;9808;52.402;16.678;2022-10-22T14:06:49;14.30;99.90
19344;DHT22;9808;52.402;16.678;2022-10-22T14:09:20;14.30;99.90
19344;DHT22;9808;52.402;16.678;2022-10-22T14:11:47;14.30;99.90
19344;DHT22;9808;52.402;16.678;2022-10-22T14:14:14;14.40;99.90
19344;DHT22;9808;52.402;16.678;2022-10-22T14:16:43;14.30;99.90
19344;DHT22;9808;52.402;16.678;2022-10-22T14:19:14;14.30;99.90
19344;DHT22;9808;52.402;16.678;2022-10-22T14:21:41;14.30;99.90
19344;DHT22;9808;52.402;16.678;2022-10-22T14:24:09;14.20;99.90
19344;DHT22;9808;52.402;16.678;2022-10-22T14:26:39;14.30;99.90
19344;DHT22;9808;52.402;16.678;2022-10-22T14:29:06;14.30;99.90
19344;DHT22;9808;52.402;16.678;2022-10-22T14:31:37;14.40;99.90
19344;DHT22;9808;52.402;16.678;2022-10-22T14:34:14;14.70;99.90
19344;DHT22;9808;52.402;16.678;2022-10-22T14:36:41;14.40;99.90
19344;DHT22;9808;52.402;16.678;2022-10-22T14:39:11;14.00;99.90
19344;DHT22;9808;52.402;16.678;2022-10-22T14:41:38;14.40;99.90
19344;DHT22;9808;52.402;16.678;2022-10-22T14:44:07;14.40;99.90
19344;DHT22;9808;52.402;16.678;2022-10-22T14:46:38;14.40;99.90
19344;DHT22;9808;52.402;16.678;2022-10-22T14:49:07;14.50;99.90
19344;DHT22;9808;52.402;16.678;2022-10-22T14:51:34;14.60;99.90
19344;DHT22;9808;52.402;16.678;2022-10-22T14:54:01;14.40;99.90
19344;DHT22;9808;52.402;16.678;2022-10-22T14:56:27;14.50;99.90
19344;DHT22;9808;52.402;16.678;2022-10-22T14:58:54;14.50;99.90
19344;DHT22;9808;52.402;16.678;2022-10-22T15:01:21;14.50;99.90
19344;DHT22;9808;52.402;16.678;2022-10-22T15:03:48;14.50;99.90
19344;DHT22;9808;52.402;16.678;2022-10-22T15:06:14;14.50;99.90
19344;DHT22;9808;52.402;16.678;2022-10-22T15:08:43;14.50;99.90
19344;DHT22;9808;52.402;16.678;2022-10-22T15:11:11;14.50;99.90
19344;DHT22;9808;52.402;16.678;2022-10-22T15:13:38;14.50;99.90
19344;DHT22;9808;52.402;16.678;2022-10-22T15:16:09;15.20;99.90
19344;DHT22;9808;52.402;16.678;2022-10-22T15:18:36;14.50;99.90
19344;DHT22;9808;52.402;16.678;2022-10-22T15:21:22;14.50;99.90
19344;DHT22;9808;52.402;16.678;2022-10-22T15:23:49;14.50;99.90
19344;DHT22;9808;52.402;16.678;2022-10-22T15:26:16;14.50;99.90
19344;DHT22;9808;52.402;16.678;2022-10-22T15:28:43;14.50;99.90
19344;DHT22;9808;52.402;16.678;2022-10-22T15:31:12;14.50;99.90
19344;DHT22;9808;52.402;16.678;2022-10-22T15:33:41;14.50;99.90
19344;DHT22;9808;52.402;16.678;2022-10-22T15:36:10;14.30;99.90
19344;DHT22;9808;52.402;16.678;2022-10-22T15:38:38;14.40;99.90
19344;DHT22;9808;52.402;16.678;2022-10-22T15:41:06;14.40;99.90
19344;DHT22;9808;52.402;16.678;2022-10-22T15:43:36;14.60;99.90
19344;DHT22;9808;52.402;16.678;2022-10-22T15:46:17;14.40;99.90
19344;DHT22;9808;52.402;16.678;2022-10-22T15:48:44;14.40;99.90
19344;DHT22;9808;52.402;16.678;2022-10-22T15:51:14;16.90;99.90
19344;DHT22;9808;52.402;16.678;2022-10-22T15:53:52;16.90;99.90
19344;DHT22;9808;52.402;16.678;2022-10-22T15:56:19;15.20;99.90
19344;DHT22;9808;52.402;16.678;2022-10-22T15:59:00;14.40;99.90
19344;DHT22;9808;52.402;16.678;2022-10-22T16:01:33;14.50;99.90
19344;DHT22;9808;52.402;16.678;2022-10-22T16:04:00;14.40;99.90
19344;DHT22;9808;52.402;16.678;2022-10-22T16:06:34;14.70;99.90
19344;DHT22;9808;52.402;16.678;2022-10-22T16:09:06;16.30;99.90
19344;DHT22;9808;52.402;16.678;2022-10-22T16:11:34;14.40;99.90
19344;DHT22;9808;52.402;16.678;2022-10-22T16:14:02;14.40;99.90
19344;DHT22;9808;52.402;16.678;2022-10-22T16:16:31;14.40;99.90
19344;DHT22;9808;52.402;16.678;2022-10-22T16:18:58;14.80;99.90
19344;DHT22;9808;52.402;16.678;2022-10-22T16:21:25;14.40;99.90
19344;DHT22;9808;52.402;16.678;2022-10-22T16:23:52;14.50;99.90
19344;DHT22;9808;52.402;16.678;2022-10-22T16:26:20;14.40;99.90
19344;DHT22;9808;52.402;16.678;2022-10-22T16:28:47;14.40;99.90
19344;DHT22;9808;52.402;16.678;2022-10-22T16:31:16;14.40;99.90
19344;DHT22;9808;52.402;16.678;2022-10-22T16:33:43;14.50;99.90
19344;DHT22;9808;52.402;16.678;2022-10-22T16:36:17;14.40;99.90
19344;DHT22;9808;52.402;16.678;2022-10-22T16:38:44;14.40;99.90
19344;DHT22;9808;52.402;16.678;2022-10-22T16:41:16;14.40;99.90
19344;DHT22;9808;52.402;16.678;2022-10-22T16:43:45;14.50;99.90
19344;DHT22;9808;52.402;16.678;2022-10-22T16:46:18;15.70;99.90
19344;DHT22;9808;52.402;16.678;2022-10-22T16:48:50;14.50;99.90
19344;DHT22;9808;52.402;16.678;2022-10-22T16:51:22;14.60;99.90
19344;DHT22;9808;52.402;16.678;2022-10-22T16:53:54;14.50;99.90
19344;DHT22;9808;52.402;16.678;2022-10-22T16:56:22;14.50;99.90
19344;DHT22;9808;52.402;16.678;2022-10-22T16:58:51;14.50;99.90
19344;DHT22;9808;52.402;16.678;2022-10-22T17:01:20;14.50;99.90
19344;DHT22;9808;52.402;16.678;2022-10-22T17:03:47;14.50;99.90
19344;DHT22;9808;52.402;16.678;2022-10-22T17:06:14;14.50;99.90
19344;DHT22;9808;52.402;16.678;2022-10-22T17:08:41;14.50;99.90
19344;DHT22;9808;52.402;16.678;2022-10-22T17:11:19;14.40;99.90
19344;DHT22;9808;52.402;16.678;2022-10-22T17:13:48;14.40;99.90
19344;DHT22;9808;52.402;16.678;2022-10-22T17:16:18;14.50;99.90
19344;DHT22;9808;52.402;16.678;2022-10-22T17:18:46;14.50;99.90
19344;DHT22;9808;52.402;16.678;2022-10-22T17:21:14;14.50;99.90
19344;DHT22;9808;52.402;16.678;2022-10-22T17:23:41;14.50;99.90